Chauncey, Ohio
Current Conditions -  °F | °C
As of 10:35 PM on Saturday 22 Nov 2014 (Local Time) from KUNI Reporting Station
Scattered Clouds Scattered Clouds  
Wind Chill: 46°   Ceiling: Unl
Heat Index: 49°   Visibility: 10mi
Dew Point: 27°   Wind: 6mph
Humidity: 42%   Direction: 170°S
Pressure: 30.11"   Gusts: NA
Location:  39.4°N, 82.13°W
Report Text: KUNI 230335Z AUTO 17005KT 10SM SCT100 09/M03 A3011 RMK AO2 T00921030
Loading
Personal Weather Stations






























Interactive Weather Map New forecast layout! Learn more

10-Day Weather Forecast

Advertisements
Track Severe Weather on mobile